Terminal Aerodrome Forecast
Issued by NWS

Home | Current Version | Previous Version | Text Only | Print | Product List | Glossary On
Versions: 1 2 3 4 5 6 7 8 9 10 11 12 13 14 15 16 17 18
000
FTUS45 KBOI 050703 AAA
TAFTWF
TAF AMD
KTWF 050703Z 0507/0606 24020G27KT P6SM VCSH OVC040
     FM050800 25017KT P6SM VCSH SCT025 OVC050
     FM051200 24017KT P6SM SCT050 BKN100
     FM051800 25012KT P6SM SCT100 BKN200
     FM060100 18007KT P6SM BKN200=

USA.gov is the U.S. government's official web portal to all federal, state and local government web resources and services.